createdAt,value
2022-09-26T00:01:36.181Z,2.58
2022-09-26T00:04:07.253Z,2.38
2022-09-26T00:06:36.548Z,2.80
2022-09-26T00:09:04.415Z,2.65
2022-09-26T00:11:34.194Z,2.60
2022-09-26T00:14:07.035Z,2.42
2022-09-26T00:16:35.259Z,2.15
2022-09-26T00:19:03.475Z,2.20
2022-09-26T00:21:32.028Z,1.95
2022-09-26T00:24:02.232Z,2.03
2022-09-26T00:26:32.900Z,2.20
2022-09-26T00:29:04.487Z,3.10
2022-09-26T00:31:34.690Z,2.28
2022-09-26T00:34:03.188Z,2.13
2022-09-26T00:36:38.112Z,1.92
2022-09-26T00:39:08.868Z,2.20
2022-09-26T00:41:37.721Z,2.38
2022-09-26T00:44:46.130Z,2.40
2022-09-26T00:47:25.568Z,2.33
2022-09-26T00:49:59.167Z,2.20
2022-09-26T00:52:31.487Z,2.50
2022-09-26T00:55:04.222Z,2.33
2022-09-26T00:57:36.685Z,2.47
2022-09-26T01:00:08.568Z,2.20
2022-09-26T01:02:36.969Z,2.28
2022-09-26T01:05:07.700Z,1.90
2022-09-26T01:07:36.271Z,2.30
2022-09-26T01:10:06.780Z,1.65
2022-09-26T01:12:37.235Z,2.10
2022-09-26T01:15:07.413Z,2.00
2022-09-26T01:17:35.616Z,2.35
2022-09-26T01:20:15.144Z,1.92
2022-09-26T01:23:24.439Z,2.40
2022-09-26T01:26:15.317Z,2.20
2022-09-26T01:28:57.601Z,2.28
2022-09-26T01:31:35.541Z,2.07
2022-09-26T01:34:12.489Z,2.38
2022-09-26T01:36:52.901Z,2.88
2022-09-26T01:39:32.174Z,2.50
2022-09-26T01:42:10.661Z,2.35
2022-09-26T01:44:47.343Z,2.20
2022-09-26T01:47:21.593Z,2.20
2022-09-26T01:49:55.912Z,2.33
2022-09-26T01:52:31.429Z,2.45
2022-09-26T01:55:07.027Z,2.15
2022-09-26T01:57:42.970Z,2.22
2022-09-26T02:00:12.868Z,1.80
2022-09-26T02:02:46.904Z,2.10
2022-09-26T02:05:19.530Z,2.00
2022-09-26T02:07:53.174Z,1.83
2022-09-26T02:10:28.068Z,2.10
2022-09-26T02:13:01.226Z,1.70
2022-09-26T02:18:09.017Z,1.92
2022-09-26T02:20:39.240Z,2.15
2022-09-26T02:23:07.141Z,2.00
2022-09-26T02:25:35.909Z,2.13
2022-09-26T02:28:05.810Z,2.08
2022-09-26T02:30:33.891Z,2.22
2022-09-26T02:33:03.690Z,1.98
2022-09-26T02:35:51.307Z,2.33
2022-09-26T02:38:19.168Z,1.98
2022-09-26T02:41:02.995Z,2.15
2022-09-26T02:43:45.649Z,2.10
2022-09-26T02:46:40.750Z,1.88
2022-09-26T02:49:26.298Z,2.60
2022-09-26T02:52:10.110Z,2.40
2022-09-26T02:54:46.485Z,2.03
2022-09-26T02:57:31.440Z,2.85
2022-09-26T03:00:04.529Z,2.38
2022-09-26T03:02:39.943Z,2.25
2022-09-26T03:05:30.834Z,2.17
2022-09-26T03:08:04.603Z,2.08
2022-09-26T03:10:33.998Z,2.58
2022-09-26T03:13:04.975Z,2.15
2022-09-26T03:15:34.288Z,1.95
2022-09-26T03:18:07.677Z,2.40
2022-09-26T03:20:37.149Z,2.30
2022-09-26T03:23:05.724Z,2.33
2022-09-26T03:25:33.983Z,2.00
2022-09-26T03:28:05.766Z,2.22
2022-09-26T03:30:34.972Z,2.00
2022-09-26T03:33:32.454Z,2.15
2022-09-26T03:36:05.972Z,2.03
2022-09-26T03:38:33.963Z,2.00
2022-09-26T03:41:10.291Z,2.22
2022-09-26T03:43:58.613Z,2.20
2022-09-26T03:46:39.000Z,2.55
2022-09-26T03:49:07.936Z,2.13
2022-09-26T03:51:37.462Z,2.30
2022-09-26T03:54:05.368Z,2.75
2022-09-26T03:56:33.222Z,2.25
2022-09-26T03:59:01.152Z,2.20
2022-09-26T04:01:31.840Z,2.17
2022-09-26T04:03:59.838Z,2.17
2022-09-26T04:06:28.085Z,2.10
2022-09-26T04:08:57.997Z,1.95
2022-09-26T04:11:25.913Z,2.20
2022-09-26T04:13:54.568Z,2.40
2022-09-26T04:16:27.392Z,1.98
2022-09-26T04:19:05.475Z,1.98
2022-09-26T04:21:34.300Z,2.35
2022-09-26T04:24:04.292Z,2.40
2022-09-26T04:26:32.221Z,2.20
2022-09-26T04:29:00.364Z,1.92
2022-09-26T04:32:06.696Z,2.30
2022-09-26T04:34:52.788Z,1.90
2022-09-26T04:37:21.789Z,2.28
2022-09-26T04:39:51.034Z,2.08
2022-09-26T04:42:18.857Z,1.80
2022-09-26T04:44:46.714Z,2.58
2022-09-26T04:47:14.535Z,2.33
2022-09-26T04:50:02.344Z,2.22
2022-09-26T04:52:31.961Z,2.22
2022-09-26T04:55:01.242Z,2.10
2022-09-26T04:57:29.169Z,2.22
2022-09-26T04:59:57.006Z,2.70
2022-09-26T05:02:24.993Z,2.42
2022-09-26T05:04:55.215Z,2.70
2022-09-26T05:07:23.381Z,2.47
2022-09-26T05:09:53.061Z,2.45
2022-09-26T05:12:23.802Z,2.50
2022-09-26T05:14:56.773Z,2.75
2022-09-26T05:17:24.762Z,2.53
2022-09-26T05:19:56.935Z,3.10
2022-09-26T05:22:33.895Z,2.50
2022-09-26T05:25:20.179Z,2.90
2022-09-26T05:27:50.111Z,2.67
2022-09-26T05:30:18.111Z,3.08
2022-09-26T05:32:48.348Z,3.28
2022-09-26T05:35:17.519Z,2.97
2022-09-26T05:37:46.188Z,3.22
2022-09-26T05:40:31.503Z,2.80
2022-09-26T05:43:04.543Z,3.03
2022-09-26T05:45:33.299Z,3.03
2022-09-26T05:48:03.405Z,3.15
2022-09-26T05:50:31.443Z,2.70
2022-09-26T05:53:00.023Z,3.45
2022-09-26T05:55:29.506Z,3.22
2022-09-26T05:58:07.744Z,3.47
2022-09-26T06:01:06.500Z,3.30
2022-09-26T06:03:36.189Z,3.28
2022-09-26T06:06:11.428Z,3.80
2022-09-26T06:08:40.970Z,3.50
2022-09-26T06:11:27.405Z,3.53
2022-09-26T06:13:57.642Z,2.83
2022-09-26T06:16:26.159Z,2.38
2022-09-26T06:18:55.622Z,2.90
2022-09-26T06:21:24.552Z,2.90
2022-09-26T06:24:00.498Z,3.10
2022-09-26T06:26:30.408Z,3.05
2022-09-26T06:29:00.973Z,3.00
2022-09-26T06:31:34.470Z,2.70
2022-09-26T06:34:12.832Z,2.75
2022-09-26T06:36:47.485Z,2.80
2022-09-26T06:39:15.900Z,2.97
2022-09-26T06:41:45.583Z,3.17
2022-09-26T06:44:37.924Z,2.67
2022-09-26T06:47:25.941Z,3.00
2022-09-26T06:50:14.671Z,3.45
2022-09-26T06:52:46.325Z,3.25
2022-09-26T06:55:15.667Z,2.97
2022-09-26T06:57:45.243Z,2.35
2022-09-26T07:00:16.910Z,2.63
2022-09-26T07:03:16.968Z,2.50
2022-09-26T07:05:51.611Z,2.78
2022-09-26T07:08:19.519Z,3.20
2022-09-26T07:10:48.210Z,3.85
2022-09-26T07:13:35.190Z,4.57
2022-09-26T07:16:04.560Z,4.13
2022-09-26T07:18:55.573Z,3.92
2022-09-26T07:21:37.763Z,4.53
2022-09-26T07:24:14.068Z,4.53
2022-09-26T07:26:43.476Z,3.50
2022-09-26T07:29:12.394Z,3.78
2022-09-26T07:31:41.893Z,3.92
2022-09-26T07:34:30.293Z,3.78
2022-09-26T07:36:59.560Z,3.45
2022-09-26T07:39:27.601Z,2.97
2022-09-26T07:41:55.467Z,4.45
2022-09-26T07:47:30.943Z,2.75
2022-09-26T07:50:15.596Z,2.45
2022-09-26T07:53:08.095Z,2.30
2022-09-26T07:56:10.556Z,2.10
2022-09-26T07:58:59.093Z,2.35
2022-09-26T08:01:44.880Z,2.38
2022-09-26T08:04:35.130Z,2.00
2022-09-26T08:07:04.168Z,1.75
2022-09-26T08:09:35.195Z,2.20
2022-09-26T08:12:22.130Z,1.95
2022-09-26T08:15:09.930Z,1.90
2022-09-26T08:17:44.927Z,1.90
2022-09-26T08:20:14.206Z,2.10
2022-09-26T08:22:42.044Z,2.03
2022-09-26T08:25:12.810Z,2.05
2022-09-26T08:28:13.424Z,2.20
2022-09-26T08:30:44.940Z,1.90
2022-09-26T08:33:14.014Z,2.20
2022-09-26T08:35:43.387Z,2.55
2022-09-26T08:38:17.217Z,2.35
2022-09-26T08:40:55.533Z,1.98
2022-09-26T08:44:03.620Z,2.15
2022-09-26T08:47:00.978Z,2.10
2022-09-26T08:50:00.083Z,1.90
2022-09-26T08:52:40.941Z,1.80
2022-09-26T08:55:16.096Z,1.83
2022-09-26T08:57:49.252Z,1.85
2022-09-26T09:00:20.611Z,1.80
2022-09-26T09:03:04.879Z,1.40
2022-09-26T09:05:35.236Z,1.50
2022-09-26T09:08:09.965Z,1.75
2022-09-26T09:10:48.377Z,1.47
2022-09-26T09:13:49.651Z,1.90
2022-09-26T09:16:38.030Z,1.13
2022-09-26T09:19:21.900Z,1.20
2022-09-26T09:22:20.555Z,1.17
2022-09-26T09:25:17.559Z,1.30
2022-09-26T09:28:02.498Z,1.30
2022-09-26T09:30:40.724Z,1.25
2022-09-26T09:33:20.874Z,0.90
2022-09-26T09:35:58.521Z,1.05
2022-09-26T09:38:41.706Z,1.30
2022-09-26T09:41:25.163Z,0.97
2022-09-26T09:46:28.905Z,1.10
2022-09-26T09:49:01.574Z,1.40
2022-09-26T09:51:39.256Z,1.77
2022-09-26T09:54:35.313Z,0.93
2022-09-26T09:57:34.794Z,1.35
2022-09-26T10:00:12.855Z,1.20
2022-09-26T10:02:54.913Z,1.13
2022-09-26T10:05:37.602Z,1.40
2022-09-26T10:08:13.207Z,1.10
2022-09-26T10:11:24.268Z,1.10
2022-09-26T10:14:04.692Z,1.00
2022-09-26T10:17:15.334Z,1.17
2022-09-26T10:20:03.488Z,0.88
2022-09-26T10:22:38.082Z,1.10
2022-09-26T10:25:16.975Z,1.00
2022-09-26T10:27:50.522Z,1.20
2022-09-26T10:30:30.182Z,1.15
2022-09-26T10:33:06.075Z,0.95
2022-09-26T10:35:44.050Z,1.90
2022-09-26T10:38:21.638Z,1.10
2022-09-26T10:40:58.231Z,1.00
2022-09-26T10:43:32.348Z,1.20
2022-09-26T10:46:18.465Z,1.42
2022-09-26T10:49:07.218Z,1.20
2022-09-26T10:52:02.644Z,1.20
2022-09-26T10:54:41.863Z,1.30
2022-09-26T10:57:21.093Z,1.23
2022-09-26T10:59:49.923Z,1.10
2022-09-26T11:02:23.816Z,1.30
2022-09-26T11:05:14.122Z,0.90
2022-09-26T11:08:00.463Z,1.50
2022-09-26T11:10:53.051Z,1.10
2022-09-26T11:13:46.663Z,0.63
2022-09-26T11:16:18.011Z,1.27
2022-09-26T11:18:57.998Z,1.00
2022-09-26T11:21:34.211Z,1.00
2022-09-26T11:24:07.009Z,1.08
2022-09-26T11:26:45.052Z,1.25
2022-09-26T11:29:18.967Z,0.98
2022-09-26T11:32:02.439Z,1.05
2022-09-26T11:35:16.119Z,0.95
2022-09-26T11:38:05.751Z,1.20
2022-09-26T11:40:45.953Z,1.35
2022-09-26T11:43:25.892Z,1.75
2022-09-26T11:46:16.610Z,1.27
2022-09-26T11:49:13.211Z,0.93
2022-09-26T11:52:25.331Z,1.10
2022-09-26T11:55:11.875Z,0.98
2022-09-26T11:57:49.317Z,0.70
2022-09-26T12:00:27.491Z,1.00
2022-09-26T12:03:33.495Z,1.20
2022-09-26T12:06:07.240Z,0.88
2022-09-26T12:09:07.912Z,1.15
2022-09-26T12:11:44.052Z,1.10
2022-09-26T12:14:29.395Z,0.98
2022-09-26T12:17:06.275Z,1.42
2022-09-26T12:19:43.365Z,1.30
2022-09-26T12:22:30.827Z,1.15
2022-09-26T12:25:20.316Z,1.08
2022-09-26T12:28:00.133Z,1.10
2022-09-26T12:30:35.214Z,1.10
2022-09-26T12:33:23.176Z,1.23
2022-09-26T12:35:57.453Z,1.50
2022-09-26T12:38:43.108Z,1.17
2022-09-26T12:41:28.316Z,1.67
2022-09-26T12:44:31.242Z,1.00
2022-09-26T12:47:21.456Z,1.45
2022-09-26T12:50:04.523Z,1.17
2022-09-26T12:52:51.800Z,1.02
2022-09-26T12:55:33.066Z,1.10
2022-09-26T12:58:16.806Z,1.00
2022-09-26T13:00:56.935Z,1.10
2022-09-26T13:03:54.795Z,1.27
2022-09-26T13:07:17.309Z,1.10
2022-09-26T13:10:07.341Z,1.10
2022-09-26T13:12:58.017Z,1.27
2022-09-26T13:15:32.370Z,1.20
2022-09-26T13:18:04.286Z,1.00
2022-09-26T13:20:40.784Z,0.90
2022-09-26T13:23:13.116Z,1.50
2022-09-26T13:25:49.736Z,1.20
2022-09-26T13:28:23.370Z,1.05
2022-09-26T13:33:26.617Z,0.98
2022-09-26T13:35:57.773Z,1.10
2022-09-26T13:38:40.267Z,1.30
2022-09-26T13:41:23.763Z,1.58
2022-09-26T13:44:03.435Z,1.30
2022-09-26T13:46:44.374Z,1.27
2022-09-26T13:49:31.739Z,0.90
2022-09-26T13:52:14.371Z,1.20
2022-09-26T13:54:57.251Z,1.38
2022-09-26T13:57:32.519Z,1.47
2022-09-26T14:00:01.924Z,1.92
2022-09-26T14:02:34.236Z,1.08
2022-09-26T14:05:46.305Z,0.90
2022-09-26T14:08:53.775Z,1.27
2022-09-26T14:11:30.329Z,1.55
2022-09-26T14:14:39.760Z,1.48
2022-09-26T14:17:40.873Z,1.67
2022-09-26T14:20:17.193Z,1.13
2022-09-26T14:22:51.808Z,1.20
2022-09-26T14:25:55.611Z,1.48
2022-09-26T14:28:33.253Z,1.20
2022-09-26T14:31:38.610Z,1.15
2022-09-26T14:34:16.855Z,1.13
2022-09-26T14:36:47.473Z,1.02
2022-09-26T14:39:35.001Z,1.10
2022-09-26T14:42:20.089Z,1.58
2022-09-26T14:44:58.400Z,1.40
2022-09-26T14:47:28.454Z,1.00
2022-09-26T14:50:02.968Z,0.90
2022-09-26T14:52:33.916Z,1.20
2022-09-26T14:55:06.984Z,1.10
2022-09-26T14:57:36.271Z,0.70
2022-09-26T15:00:19.865Z,1.30
2022-09-26T15:05:25.162Z,1.00
2022-09-26T15:07:56.958Z,1.00
2022-09-26T15:10:38.484Z,0.80
2022-09-26T15:13:19.523Z,1.45
2022-09-26T15:15:55.424Z,0.90
2022-09-26T15:18:34.659Z,1.00
2022-09-26T15:21:10.746Z,1.13
2022-09-26T15:23:49.473Z,1.15
2022-09-26T15:26:21.491Z,1.08
2022-09-26T15:28:51.786Z,1.00
2022-09-26T15:31:23.500Z,0.80
2022-09-26T15:33:55.704Z,1.20
2022-09-26T15:36:23.907Z,1.10
2022-09-26T15:38:53.323Z,1.00
2022-09-26T15:41:35.278Z,1.10
2022-09-26T15:44:05.816Z,1.50
2022-09-26T15:46:34.091Z,1.10
2022-09-26T15:49:02.142Z,1.10
2022-09-26T15:51:39.279Z,1.30
2022-09-26T15:54:16.058Z,1.13
2022-09-26T15:56:49.811Z,1.17
2022-09-26T15:59:22.537Z,1.15
2022-09-26T16:01:52.297Z,1.30
2022-09-26T16:04:22.621Z,1.40
2022-09-26T16:06:56.266Z,1.40
2022-09-26T16:09:32.362Z,1.38
2022-09-26T16:12:03.061Z,1.42
2022-09-26T16:14:40.333Z,1.13
2022-09-26T16:17:18.758Z,1.08
2022-09-26T16:19:49.130Z,1.70
2022-09-26T16:22:44.945Z,1.20
2022-09-26T16:25:29.950Z,1.45
2022-09-26T16:28:42.537Z,1.67
2022-09-26T16:31:23.170Z,1.60
2022-09-26T16:33:53.396Z,1.60
2022-09-26T16:36:23.471Z,1.20
2022-09-26T16:38:59.982Z,1.70
2022-09-26T16:44:27.802Z,1.50
2022-09-26T16:47:03.136Z,1.30
2022-09-26T16:49:42.129Z,1.38
2022-09-26T16:52:21.950Z,1.40
2022-09-26T16:54:50.183Z,1.45
2022-09-26T16:57:22.711Z,1.42
2022-09-26T16:59:52.396Z,1.13
2022-09-26T17:02:20.345Z,1.40
2022-09-26T17:04:50.088Z,1.55
2022-09-26T17:07:18.077Z,1.38
2022-09-26T17:09:46.026Z,1.90
2022-09-26T17:12:18.973Z,1.40
2022-09-26T17:14:51.903Z,1.50
2022-09-26T17:17:25.294Z,1.60
2022-09-26T17:19:59.399Z,1.50
2022-09-26T17:22:28.659Z,1.40
2022-09-26T17:24:56.629Z,2.67
2022-09-26T17:27:27.530Z,1.35
2022-09-26T17:30:05.954Z,1.42
2022-09-26T17:32:37.445Z,1.58
2022-09-26T17:35:13.379Z,1.80
2022-09-26T17:37:41.380Z,1.90
2022-09-26T17:40:16.950Z,1.92
2022-09-26T17:42:44.975Z,2.00
2022-09-26T17:45:14.674Z,1.30
2022-09-26T17:47:42.685Z,1.83
2022-09-26T17:50:21.953Z,1.90
2022-09-26T17:52:50.389Z,1.55
2022-09-26T17:55:24.532Z,1.85
2022-09-26T17:57:54.054Z,1.25
2022-09-26T18:00:23.447Z,1.52
2022-09-26T18:02:55.189Z,1.60
2022-09-26T18:05:26.324Z,1.50
2022-09-26T18:07:58.655Z,1.80
2022-09-26T18:10:30.479Z,1.85
2022-09-26T18:13:00.902Z,1.85
2022-09-26T18:15:31.103Z,1.77
2022-09-26T18:18:00.330Z,2.17
2022-09-26T18:20:38.060Z,1.92
2022-09-26T18:23:07.741Z,1.98
2022-09-26T18:25:37.576Z,2.08
2022-09-26T18:28:08.140Z,2.03
2022-09-26T18:30:38.842Z,2.80
2022-09-26T18:33:07.103Z,1.92
2022-09-26T18:35:35.099Z,1.77
2022-09-26T18:38:03.403Z,2.10
2022-09-26T18:40:31.706Z,2.08
2022-09-26T18:42:59.848Z,1.50
2022-09-26T18:45:30.340Z,1.90
2022-09-26T18:47:59.722Z,1.50
2022-09-26T18:50:34.213Z,1.88
2022-09-26T18:53:02.237Z,1.77
2022-09-26T18:55:50.163Z,2.00
2022-09-26T18:58:25.677Z,2.40
2022-09-26T19:00:56.728Z,2.08
2022-09-26T19:03:29.186Z,1.70
2022-09-26T19:06:03.208Z,1.40
2022-09-26T19:08:36.847Z,1.90
2022-09-26T19:11:11.107Z,1.83
2022-09-26T19:13:39.047Z,1.92
2022-09-26T19:16:07.579Z,1.75
2022-09-26T19:18:37.503Z,1.70
2022-09-26T19:21:08.173Z,1.45
2022-09-26T19:23:39.371Z,1.55
2022-09-26T19:26:10.303Z,1.50
2022-09-26T19:28:38.378Z,2.20
2022-09-26T19:31:06.504Z,1.80
2022-09-26T19:33:35.954Z,1.90
2022-09-26T19:36:06.654Z,2.03
2022-09-26T19:38:34.622Z,1.58
2022-09-26T19:41:03.335Z,1.60
2022-09-26T19:43:31.605Z,1.65
2022-09-26T19:45:59.911Z,1.50
2022-09-26T19:48:27.950Z,1.52
2022-09-26T19:50:57.426Z,1.55
2022-09-26T19:53:25.380Z,1.70
2022-09-26T19:55:55.469Z,1.60
2022-09-26T19:58:25.550Z,1.10
2022-09-26T20:00:58.841Z,2.00
2022-09-26T20:06:03.476Z,1.58
2022-09-26T20:08:34.898Z,1.40
2022-09-26T20:11:03.329Z,1.58
2022-09-26T20:13:52.215Z,1.67
2022-09-26T20:16:20.370Z,1.70
2022-09-26T20:18:51.064Z,1.60
2022-09-26T20:21:25.288Z,1.63
2022-09-26T20:23:53.279Z,1.88
2022-09-26T20:26:21.677Z,1.40
2022-09-26T20:28:49.955Z,1.60
2022-09-26T20:31:23.167Z,1.23
2022-09-26T20:33:54.427Z,1.67
2022-09-26T20:36:28.369Z,2.03
2022-09-26T20:39:00.459Z,1.42
2022-09-26T20:41:33.851Z,1.60
2022-09-26T20:46:33.232Z,1.33
2022-09-26T20:49:04.337Z,1.48
2022-09-26T20:51:35.120Z,1.40
2022-09-26T20:54:06.598Z,1.67
2022-09-26T20:56:34.527Z,1.35
2022-09-26T20:59:02.449Z,1.70
2022-09-26T21:01:30.501Z,1.40
2022-09-26T21:03:58.738Z,1.30
2022-09-26T21:06:31.593Z,1.20
2022-09-26T21:09:01.217Z,2.17
2022-09-26T21:11:29.280Z,1.40
2022-09-26T21:13:57.228Z,1.52
2022-09-26T21:16:25.187Z,1.70
2022-09-26T21:18:54.020Z,1.48
2022-09-26T21:21:25.158Z,1.35
2022-09-26T21:24:24.753Z,1.20
2022-09-26T21:26:53.037Z,1.63
2022-09-26T21:29:21.104Z,1.67
2022-09-26T21:31:52.563Z,1.30
2022-09-26T21:34:23.445Z,1.23
2022-09-26T21:36:54.312Z,1.38
2022-09-26T21:39:25.180Z,1.60
2022-09-26T21:41:56.792Z,1.50
2022-09-26T21:44:29.082Z,1.42
2022-09-26T21:46:57.048Z,1.10
2022-09-26T21:49:25.741Z,1.55
2022-09-26T21:51:58.916Z,1.50
2022-09-26T21:54:32.908Z,1.50
2022-09-26T21:57:06.235Z,1.48
2022-09-26T22:02:02.107Z,1.60
2022-09-26T22:04:30.087Z,1.17
2022-09-26T22:06:58.079Z,1.40
2022-09-26T22:09:26.067Z,1.63
2022-09-26T22:11:55.495Z,1.50
2022-09-26T22:14:23.451Z,1.40
2022-09-26T22:16:51.495Z,1.58
2022-09-26T22:19:19.828Z,1.45
2022-09-26T22:21:47.866Z,1.70
2022-09-26T22:24:15.871Z,1.73
2022-09-26T22:26:45.093Z,1.50
2022-09-26T22:29:14.744Z,1.27
2022-09-26T22:31:43.257Z,1.92
2022-09-26T22:34:11.794Z,1.27
2022-09-26T22:36:39.791Z,1.42
2022-09-26T22:39:07.814Z,1.40
2022-09-26T22:41:35.748Z,1.00
2022-09-26T22:44:04.061Z,1.40
2022-09-26T22:46:35.324Z,1.35
2022-09-26T22:49:03.681Z,1.10
2022-09-26T22:51:31.655Z,1.23
2022-09-26T22:53:59.640Z,1.23
2022-09-26T22:56:27.683Z,1.45
2022-09-26T22:58:55.764Z,1.40
2022-09-26T23:01:27.297Z,1.30
2022-09-26T23:03:58.615Z,1.52
2022-09-26T23:06:27.384Z,1.33
2022-09-26T23:08:56.262Z,1.58
2022-09-26T23:11:24.907Z,1.17
2022-09-26T23:13:53.698Z,1.40
2022-09-26T23:16:24.112Z,1.55
2022-09-26T23:18:52.784Z,1.02
2022-09-26T23:21:24.061Z,1.60
2022-09-26T23:23:54.885Z,1.27
2022-09-26T23:26:25.006Z,1.20
2022-09-26T23:28:55.073Z,1.10
2022-09-26T23:31:24.160Z,1.38
2022-09-26T23:33:53.189Z,1.40
2022-09-26T23:36:23.086Z,1.25
2022-09-26T23:38:51.264Z,1.58
2022-09-26T23:41:19.617Z,1.30
2022-09-26T23:43:47.593Z,1.90
2022-09-26T23:46:15.985Z,1.40
2022-09-26T23:48:44.513Z,1.52
2022-09-26T23:51:12.583Z,1.30
2022-09-26T23:53:41.866Z,1.42
2022-09-26T23:56:11.969Z,1.40
2022-09-26T23:58:40.223Z,1.63
